createdAt,value
2023-04-12T00:01:16.014Z,2.80
2023-04-12T00:04:18.810Z,3.20
2023-04-12T00:07:24.960Z,2.40
2023-04-12T00:10:27.560Z,2.70
2023-04-12T00:13:30.508Z,2.65
2023-04-12T00:16:33.237Z,2.70
2023-04-12T00:19:35.517Z,2.55
2023-04-12T00:22:44.043Z,2.35
2023-04-12T00:25:46.450Z,3.20
2023-04-12T00:28:49.098Z,2.97
2023-04-12T00:31:51.318Z,3.05
2023-04-12T00:34:53.900Z,3.08
2023-04-12T00:37:56.525Z,3.17
2023-04-12T00:40:59.441Z,3.15
2023-04-12T00:44:01.657Z,3.85
2023-04-12T00:47:05.536Z,3.28
2023-04-12T00:50:09.129Z,3.03
2023-04-12T00:53:13.606Z,2.62
2023-04-12T00:56:16.139Z,3.70
2023-04-12T00:59:18.636Z,3.77
2023-04-12T01:02:20.978Z,3.72
2023-04-12T01:05:24.670Z,3.40
2023-04-12T01:08:34.096Z,3.58
2023-04-12T01:11:47.667Z,3.45
2023-04-12T01:15:12.681Z,3.12
2023-04-12T01:18:22.112Z,3.67
2023-04-12T01:21:35.944Z,3.42
2023-04-12T01:25:01.759Z,4.00
2023-04-12T01:28:05.554Z,3.35
2023-04-12T01:31:09.032Z,3.53
2023-04-12T01:34:13.671Z,4.22
2023-04-12T01:37:19.799Z,4.15
2023-04-12T01:40:22.584Z,4.30
2023-04-12T01:43:25.230Z,4.15
2023-04-12T01:46:27.603Z,3.67
2023-04-12T01:49:37.792Z,4.12
2023-04-12T01:52:46.500Z,4.22
2023-04-12T01:55:50.785Z,4.53
2023-04-12T02:01:57.095Z,3.63
2023-04-12T02:05:01.692Z,3.00
2023-04-12T02:11:14.732Z,4.18
2023-04-12T02:14:19.565Z,5.00
2023-04-12T02:17:21.945Z,4.25
2023-04-12T02:20:25.938Z,4.55
2023-04-12T02:23:28.091Z,3.65
2023-04-12T02:26:30.578Z,3.90
2023-04-12T02:29:32.769Z,4.03
2023-04-12T02:32:44.018Z,4.03
2023-04-12T02:35:47.721Z,4.05
2023-04-12T02:38:51.659Z,4.12
2023-04-12T02:41:54.312Z,4.12
2023-04-12T02:44:56.766Z,4.47
2023-04-12T02:47:59.458Z,3.83
2023-04-12T02:51:03.157Z,4.95
2023-04-12T02:54:06.081Z,5.35
2023-04-12T02:57:11.485Z,4.40
2023-04-12T03:00:17.948Z,4.10
2023-04-12T03:03:21.798Z,4.85
2023-04-12T03:06:26.071Z,5.22
2023-04-12T03:09:28.847Z,4.77
2023-04-12T03:12:31.112Z,4.25
2023-04-12T03:15:35.550Z,4.40
2023-04-12T03:18:38.186Z,4.40
2023-04-12T03:21:40.823Z,4.50
2023-04-12T03:24:44.691Z,4.18
2023-04-12T03:27:48.603Z,3.78
2023-04-12T03:30:51.451Z,4.55
2023-04-12T03:33:54.539Z,4.70
2023-04-12T03:36:57.428Z,4.20
2023-04-12T03:40:00.806Z,4.70
2023-04-12T03:43:03.098Z,4.27
2023-04-12T03:46:06.553Z,4.03
2023-04-12T03:49:09.116Z,4.25
2023-04-12T03:52:11.970Z,3.47
2023-04-12T03:55:18.227Z,3.47
2023-04-12T03:58:22.415Z,4.70
2023-04-12T04:01:24.706Z,4.10
2023-04-12T04:04:28.271Z,4.65
2023-04-12T04:07:32.700Z,3.87
2023-04-12T04:10:36.216Z,3.78
2023-04-12T04:13:40.089Z,4.40
2023-04-12T04:16:43.084Z,4.05
2023-04-12T04:19:45.868Z,4.33
2023-04-12T04:22:48.890Z,3.53
2023-04-12T04:25:53.451Z,4.05
2023-04-12T04:28:56.394Z,3.87
2023-04-12T04:31:59.318Z,4.20
2023-04-12T04:35:02.043Z,4.23
2023-04-12T04:38:05.596Z,3.80
2023-04-12T04:41:09.200Z,3.80
2023-04-12T04:44:13.403Z,3.67
2023-04-12T04:47:17.297Z,2.62
2023-04-12T04:50:24.143Z,2.65
2023-04-12T04:53:27.022Z,2.65
2023-04-12T04:56:30.174Z,2.80
2023-04-12T04:59:33.704Z,3.30
2023-04-12T05:02:40.131Z,3.40
2023-04-12T05:05:42.682Z,2.72
2023-04-12T05:08:45.392Z,3.70
2023-04-12T05:11:49.503Z,2.87
2023-04-12T05:14:52.027Z,3.10
2023-04-12T05:17:54.709Z,3.20
2023-04-12T05:21:02.615Z,2.25
2023-04-12T05:24:07.200Z,2.37
2023-04-12T05:27:09.806Z,2.60
2023-04-12T05:30:12.594Z,2.33
2023-04-12T05:33:15.825Z,2.37
2023-04-12T05:36:18.504Z,2.58
2023-04-12T05:39:21.239Z,3.15
2023-04-12T05:42:24.022Z,2.70
2023-04-12T05:45:27.627Z,2.10
2023-04-12T05:48:35.091Z,2.22
2023-04-12T05:51:41.424Z,1.77
2023-04-12T05:54:46.162Z,1.85
2023-04-12T05:57:49.130Z,1.90
2023-04-12T06:03:58.294Z,2.50
2023-04-12T06:07:01.968Z,2.03
2023-04-12T06:10:07.375Z,1.83
2023-04-12T06:13:10.155Z,2.22
2023-04-12T06:16:15.635Z,2.05
2023-04-12T06:19:18.210Z,2.00
2023-04-12T06:22:20.882Z,1.62
2023-04-12T06:25:23.280Z,2.08
2023-04-12T06:28:26.482Z,1.90
2023-04-12T06:31:28.996Z,2.25
2023-04-12T06:34:33.972Z,2.40
2023-04-12T06:37:37.090Z,2.08
2023-04-12T06:40:39.939Z,2.40
2023-04-12T06:43:42.175Z,2.33
2023-04-12T06:46:44.897Z,2.95
2023-04-12T06:49:48.233Z,2.22
2023-04-12T06:52:50.834Z,2.92
2023-04-12T06:55:53.867Z,2.40
2023-04-12T06:58:57.016Z,2.42
2023-04-12T07:01:59.371Z,2.10
2023-04-12T07:05:03.215Z,3.15
2023-04-12T07:08:05.629Z,1.90
2023-04-12T07:11:19.992Z,2.15
2023-04-12T07:14:24.345Z,1.70
2023-04-12T07:17:27.162Z,2.83
2023-04-12T07:20:29.486Z,2.60
2023-04-12T07:23:32.099Z,2.47
2023-04-12T07:26:34.356Z,2.50
2023-04-12T07:29:37.351Z,2.57
2023-04-12T07:32:39.562Z,2.40
2023-04-12T07:35:42.768Z,2.67
2023-04-12T07:38:44.910Z,2.40
2023-04-12T07:41:48.381Z,2.90
2023-04-12T07:44:50.743Z,2.58
2023-04-12T07:47:53.278Z,3.00
2023-04-12T07:50:55.581Z,2.45
2023-04-12T07:53:58.523Z,2.90
2023-04-12T07:57:05.465Z,2.60
2023-04-12T08:00:09.149Z,3.10
2023-04-12T08:03:17.533Z,2.75
2023-04-12T08:06:20.219Z,2.78
2023-04-12T08:09:23.583Z,2.55
2023-04-12T08:15:28.413Z,2.40
2023-04-12T08:18:30.926Z,2.58
2023-04-12T08:21:33.847Z,2.97
2023-04-12T08:24:36.360Z,2.58
2023-04-12T08:27:43.192Z,2.58
2023-04-12T08:30:45.704Z,2.37
2023-04-12T08:33:48.073Z,2.33
2023-04-12T08:36:50.583Z,2.85
2023-04-12T08:39:52.859Z,3.00
2023-04-12T08:42:57.567Z,3.03
2023-04-12T08:46:00.898Z,2.22
2023-04-12T08:52:07.517Z,2.67
2023-04-12T08:55:12.714Z,2.42
2023-04-12T08:58:15.655Z,2.40
2023-04-12T09:01:21.647Z,4.00
2023-04-12T09:04:26.220Z,2.75
2023-04-12T09:07:30.605Z,3.28
2023-04-12T09:10:36.423Z,2.70
2023-04-12T09:13:39.616Z,2.80
2023-04-12T09:16:42.271Z,3.03
2023-04-12T09:19:44.812Z,3.35
2023-04-12T09:22:47.659Z,2.20
2023-04-12T09:25:53.721Z,3.28
2023-04-12T09:28:57.498Z,2.53
2023-04-12T09:32:03.384Z,2.20
2023-04-12T09:35:06.389Z,2.17
2023-04-12T09:38:10.359Z,2.40
2023-04-12T09:41:20.233Z,2.08
2023-04-12T09:44:30.570Z,2.35
2023-04-12T09:47:40.411Z,3.58
2023-04-12T09:50:43.596Z,2.40
2023-04-12T09:53:48.061Z,2.47
2023-04-12T09:56:51.126Z,2.33
2023-04-12T09:59:56.861Z,2.27
2023-04-12T10:02:59.939Z,2.58
2023-04-12T10:06:04.715Z,2.30
2023-04-12T10:09:08.654Z,1.90
2023-04-12T10:12:11.189Z,2.20
2023-04-12T10:15:17.225Z,2.37
2023-04-12T10:18:21.969Z,2.37
2023-04-12T10:21:24.415Z,2.40
2023-04-12T10:24:28.892Z,2.10
2023-04-12T10:27:32.059Z,2.37
2023-04-12T10:33:38.229Z,2.17
2023-04-12T10:37:00.493Z,2.67
2023-04-12T10:43:19.146Z,3.47
2023-04-12T10:46:41.082Z,2.83
2023-04-12T10:50:21.700Z,3.65
2023-04-12T10:53:25.266Z,2.50
2023-04-12T10:56:33.961Z,3.25
2023-04-12T10:59:57.199Z,2.22
2023-04-12T11:03:12.703Z,1.92
2023-04-12T11:06:27.072Z,2.53
2023-04-12T11:09:34.361Z,2.25
2023-04-12T11:12:38.810Z,2.23
2023-04-12T11:15:41.428Z,2.50
2023-04-12T11:18:47.196Z,2.22
2023-04-12T11:21:51.461Z,2.70
2023-04-12T11:24:56.479Z,2.25
2023-04-12T11:28:00.917Z,1.92
2023-04-12T11:31:03.989Z,2.00
2023-04-12T11:34:08.671Z,2.47
2023-04-12T11:37:11.175Z,2.35
2023-04-12T11:40:14.545Z,1.80
2023-04-12T11:43:22.716Z,2.08
2023-04-12T11:46:25.536Z,1.50
2023-04-12T11:49:28.362Z,1.48
2023-04-12T11:58:37.054Z,2.12
2023-04-12T12:01:39.384Z,1.62
2023-04-12T12:04:47.635Z,1.70
2023-04-12T12:07:52.567Z,1.55
2023-04-12T12:11:40.028Z,2.12
2023-04-12T12:14:21.953Z,1.67
2023-04-12T12:17:24.370Z,1.45
2023-04-12T12:20:29.951Z,1.40
2023-04-12T12:23:33.541Z,1.25
2023-04-12T12:29:38.719Z,2.08
2023-04-12T12:32:41.034Z,1.62
2023-04-12T12:35:43.629Z,1.48
2023-04-12T12:38:45.848Z,1.75
2023-04-12T12:41:55.513Z,1.50
2023-04-12T12:44:57.634Z,1.83
2023-04-12T12:48:04.394Z,1.40
2023-04-12T12:51:06.825Z,1.77
2023-04-12T12:54:09.671Z,1.85
2023-04-12T13:00:16.393Z,1.85
2023-04-12T13:03:18.861Z,2.00
2023-04-12T13:06:22.135Z,1.50
2023-04-12T13:09:24.275Z,2.35
2023-04-12T13:12:27.062Z,1.62
2023-04-12T13:15:29.855Z,2.03
2023-04-12T13:18:32.458Z,1.83
2023-04-12T13:21:34.590Z,2.20
2023-04-12T13:24:37.102Z,1.40
2023-04-12T13:27:39.565Z,1.80
2023-04-12T13:30:42.498Z,1.48
2023-04-12T13:33:44.794Z,1.73
2023-04-12T13:36:47.839Z,1.77
2023-04-12T13:39:53.217Z,1.73
2023-04-12T13:42:55.703Z,1.70
2023-04-12T13:45:57.956Z,1.73
2023-04-12T13:49:00.663Z,1.60
2023-04-12T13:52:03.162Z,1.35
2023-04-12T13:55:08.314Z,1.50
2023-04-12T13:58:10.704Z,1.33
2023-04-12T14:01:13.554Z,1.95
2023-04-12T14:04:16.102Z,1.77
2023-04-12T14:07:18.580Z,1.98
2023-04-12T14:10:21.077Z,1.27
2023-04-12T14:13:24.116Z,1.83
2023-04-12T14:16:26.606Z,1.95
2023-04-12T14:19:28.882Z,1.98
2023-04-12T14:22:31.464Z,1.12
2023-04-12T14:25:36.949Z,1.17
2023-04-12T14:28:39.913Z,1.25
2023-04-12T14:31:42.296Z,1.10
2023-04-12T14:34:45.014Z,1.10
2023-04-12T14:37:47.985Z,1.45
2023-04-12T14:40:51.574Z,1.48
2023-04-12T14:43:53.811Z,1.20
2023-04-12T14:46:56.742Z,2.37
2023-04-12T14:49:58.961Z,1.10
2023-04-12T14:53:01.411Z,1.27
2023-04-12T14:56:03.663Z,3.58
2023-04-12T14:59:06.159Z,1.17
2023-04-12T15:02:08.779Z,1.60
2023-04-12T15:05:11.706Z,1.30
2023-04-12T15:08:14.033Z,1.30
2023-04-12T15:11:19.255Z,1.83
2023-04-12T15:14:22.809Z,1.92
2023-04-12T15:17:25.483Z,1.60
2023-04-12T15:20:27.721Z,2.10
2023-04-12T15:23:30.458Z,1.27
2023-04-12T15:26:35.040Z,1.50
2023-04-12T15:29:37.599Z,1.20
2023-04-12T15:32:42.657Z,1.60
2023-04-12T15:35:46.001Z,1.73
2023-04-12T15:38:48.314Z,1.42
2023-04-12T15:41:51.091Z,2.40
2023-04-12T15:44:53.350Z,1.75
2023-04-12T15:47:56.170Z,1.45
2023-04-12T15:51:00.253Z,2.15
2023-04-12T15:54:02.844Z,1.40
2023-04-12T15:57:09.460Z,1.33
2023-04-12T16:00:20.668Z,1.45
2023-04-12T16:03:24.698Z,2.15
2023-04-12T16:09:29.993Z,1.87
2023-04-12T16:12:32.298Z,1.60
2023-04-12T16:15:34.832Z,2.33
2023-04-12T16:18:36.999Z,1.85
2023-04-12T16:24:43.747Z,2.35
2023-04-12T16:27:46.221Z,1.73
2023-04-12T16:30:50.145Z,2.42
2023-04-12T16:33:53.591Z,2.03
2023-04-12T16:36:56.261Z,2.58
2023-04-12T16:39:58.854Z,1.45
2023-04-12T16:43:01.123Z,2.78
2023-04-12T16:46:05.150Z,1.75
2023-04-12T16:49:07.340Z,2.10
2023-04-12T16:52:10.072Z,1.98
2023-04-12T16:55:12.692Z,2.20
2023-04-12T16:58:15.714Z,2.25
2023-04-12T17:01:18.278Z,2.77
2023-04-12T17:04:20.907Z,1.92
2023-04-12T17:07:23.104Z,2.10
2023-04-12T17:10:26.697Z,2.62
2023-04-12T17:13:30.275Z,4.68
2023-04-12T17:16:32.780Z,2.45
2023-04-12T17:19:35.080Z,2.42
2023-04-12T17:22:38.482Z,2.80
2023-04-12T17:25:41.430Z,2.87
2023-04-12T17:28:44.944Z,2.30
2023-04-12T17:31:50.689Z,2.90
2023-04-12T17:34:55.647Z,2.75
2023-04-12T17:37:57.857Z,2.80
2023-04-12T17:41:00.411Z,3.08
2023-04-12T17:44:02.609Z,3.05
2023-04-12T17:47:05.059Z,3.00
2023-04-12T17:50:11.532Z,2.67
2023-04-12T17:53:14.083Z,2.80
2023-04-12T17:56:18.704Z,2.97
2023-04-12T17:59:21.129Z,2.80
2023-04-12T18:02:23.459Z,2.67
2023-04-12T18:05:26.252Z,2.77
2023-04-12T18:08:28.450Z,3.20
2023-04-12T18:11:31.138Z,2.90
2023-04-12T18:14:33.368Z,2.65
2023-04-12T18:17:36.000Z,3.15
2023-04-12T18:20:38.211Z,3.33
2023-04-12T18:23:40.726Z,3.53
2023-04-12T18:26:44.082Z,3.50
2023-04-12T18:32:48.786Z,3.20
2023-04-12T18:35:51.613Z,4.03
2023-04-12T18:38:53.776Z,2.87
2023-04-12T18:41:57.117Z,3.08
2023-04-12T18:44:59.333Z,3.53
2023-04-12T18:48:03.319Z,3.92
2023-04-12T18:54:12.803Z,3.78
2023-04-12T18:57:15.643Z,3.65
2023-04-12T19:00:19.701Z,3.53
2023-04-12T19:03:22.098Z,4.70
2023-04-12T19:06:24.790Z,4.35
2023-04-12T19:09:27.389Z,3.72
2023-04-12T19:12:30.350Z,3.87
2023-04-12T19:15:32.647Z,4.50
2023-04-12T19:18:35.347Z,4.05
2023-04-12T19:21:37.812Z,3.95
2023-04-12T19:24:40.301Z,4.17
2023-04-12T19:27:42.435Z,4.53
2023-04-12T19:30:44.872Z,4.90
2023-04-12T19:33:47.021Z,4.28
2023-04-12T19:36:49.595Z,4.60
2023-04-12T19:39:51.769Z,4.12
2023-04-12T19:42:54.294Z,3.72
2023-04-12T19:45:57.626Z,5.05
2023-04-12T19:49:00.573Z,4.68
2023-04-12T19:52:05.440Z,4.90
2023-04-12T19:55:09.125Z,5.28
2023-04-12T19:58:11.556Z,4.50
2023-04-12T20:01:15.979Z,4.77
2023-04-12T20:04:21.066Z,6.05
2023-04-12T20:07:23.304Z,5.10
2023-04-12T20:10:25.822Z,5.00
2023-04-12T20:13:30.955Z,4.60
2023-04-12T20:16:34.975Z,5.22
2023-04-12T20:22:48.863Z,5.00
2023-04-12T20:25:51.274Z,4.32
2023-04-12T20:28:56.672Z,4.53
2023-04-12T20:31:59.941Z,4.40
2023-04-12T20:38:07.066Z,5.18
2023-04-12T20:41:10.712Z,4.82
2023-04-12T20:44:13.019Z,4.05
2023-04-12T20:47:16.118Z,4.43
2023-04-12T20:50:22.783Z,5.43
2023-04-12T20:53:25.602Z,4.80
2023-04-12T20:56:29.134Z,5.30
2023-04-12T20:59:33.069Z,5.20
2023-04-12T21:02:36.213Z,6.40
2023-04-12T21:08:43.366Z,5.82
2023-04-12T21:14:51.135Z,6.97
2023-04-12T21:17:54.203Z,6.03
2023-04-12T21:20:59.229Z,5.82
2023-04-12T21:24:03.535Z,6.70
2023-04-12T21:27:07.426Z,6.28
2023-04-12T21:30:14.008Z,7.15
2023-04-12T21:33:24.466Z,7.35
2023-04-12T21:36:28.552Z,6.22
2023-04-12T21:42:34.508Z,6.62
2023-04-12T21:45:36.875Z,6.95
2023-04-12T21:48:39.306Z,7.28
2023-04-12T21:51:41.552Z,9.07
2023-04-12T21:54:48.664Z,7.97
2023-04-12T21:57:51.071Z,7.75
2023-04-12T22:00:53.618Z,8.40
2023-04-12T22:03:57.264Z,8.65
2023-04-12T22:07:02.037Z,8.35
2023-04-12T22:10:05.218Z,6.87
2023-04-12T22:13:10.226Z,8.15
2023-04-12T22:16:14.020Z,6.82
2023-04-12T22:19:17.079Z,7.93
2023-04-12T22:22:19.498Z,7.60
2023-04-12T22:25:21.910Z,7.60
2023-04-12T22:28:24.606Z,7.90
2023-04-12T22:31:27.533Z,7.80
2023-04-12T22:34:30.030Z,6.68
2023-04-12T22:37:33.544Z,7.57
2023-04-12T22:40:38.002Z,6.87
2023-04-12T22:43:42.705Z,7.15
2023-04-12T22:46:48.429Z,6.72
2023-04-12T22:49:50.878Z,6.70
2023-04-12T22:52:54.420Z,8.80
2023-04-12T22:55:57.179Z,7.45
2023-04-12T22:58:59.907Z,6.55
2023-04-12T23:02:02.298Z,6.10
2023-04-12T23:05:05.534Z,7.07
2023-04-12T23:08:09.181Z,6.47
2023-04-12T23:11:11.663Z,6.28
2023-04-12T23:14:17.686Z,6.05
2023-04-12T23:17:20.198Z,7.25
2023-04-12T23:20:23.055Z,7.90
2023-04-12T23:23:26.313Z,7.50
2023-04-12T23:26:28.587Z,6.97
2023-04-12T23:29:31.179Z,7.43
2023-04-12T23:32:33.363Z,8.02
2023-04-12T23:35:39.176Z,8.43
2023-04-12T23:38:44.399Z,9.05
2023-04-12T23:41:47.007Z,9.18
2023-04-12T23:44:49.741Z,7.75
2023-04-12T23:47:52.518Z,10.02
2023-04-12T23:50:54.858Z,9.55
2023-04-12T23:53:57.795Z,9.20
2023-04-12T23:57:01.296Z,10.60
